KHLG

Wheeling Ohio Co Airport

Wheeling, West Virginia, USA
METAR KHLG 181453Z 31010KT 280V350 10SM CLR 06/M02 A3050 RMK AO2 SLP337 T00561022 51012
Observed Flight Rules
Oct-18 @ 14:53 UTC (an hour ago) Visual Flight Rules
Wind Visibility Clouds
310° at 10 knots 10 miles
  • Clear skies
Temperatures Readings
Current 6°C / 43°F
Dewpoint -2°C / 28°F
Humidity 57%
Altimeter 30.5" Hg
Pressure 1033.7 hPa
Elevation 372
METAR KHLG 181453Z 31010KT 280V350 10SM CLR 06/M02 A3050 RMK AO2 SLP337 T00561022 51012
Observed Flight Rules
Oct-18 @ 14:53 UTC
(an hour ago)
VFR
Wind Visibility
310° at 10 knots 10 miles
Clouds
  • Clear skies
Temperature Dewpoint
6°C / 43°F -2°C / 28°F
Humidity Altimeter Pressure
57% 30.5" Hg 1033.7 hPa